createdAt,value
2022-10-28T00:04:38.535Z,101820.95
2022-10-28T00:09:45.888Z,101820.86
2022-10-28T00:14:53.278Z,101818.80
2022-10-28T00:20:00.865Z,101817.01
2022-10-28T00:25:09.159Z,101819.27
2022-10-28T00:30:16.404Z,101816.84
2022-10-28T00:35:24.420Z,101807.70
2022-10-28T00:40:37.248Z,101803.29
2022-10-28T00:45:44.791Z,101795.67
2022-10-28T00:50:53.280Z,101792.48
2022-10-28T00:56:04.930Z,101782.29
2022-10-28T01:01:12.358Z,101782.30
2022-10-28T01:06:19.763Z,101780.05
2022-10-28T01:11:58.636Z,101786.58
2022-10-28T01:17:22.383Z,101783.60
2022-10-28T01:22:35.758Z,101772.69
2022-10-28T01:28:08.416Z,101770.55
2022-10-28T01:33:22.733Z,101766.86
2022-10-28T01:38:37.264Z,101765.67
2022-10-28T01:43:52.620Z,101757.79
2022-10-28T01:49:04.247Z,101756.19
2022-10-28T01:54:13.081Z,101747.34
2022-10-28T01:59:25.985Z,101742.14
2022-10-28T02:04:33.156Z,101738.52
2022-10-28T02:09:58.573Z,101732.56
2022-10-28T02:15:24.836Z,101728.17
2022-10-28T02:20:43.035Z,101725.67
2022-10-28T02:25:57.845Z,101728.25
2022-10-28T02:31:11.882Z,101720.66
2022-10-28T02:36:23.604Z,101714.70
2022-10-28T02:41:37.556Z,101703.29
2022-10-28T02:46:48.839Z,101699.19
2022-10-28T02:52:00.826Z,101703.82
2022-10-28T02:57:12.420Z,101693.39
2022-10-28T03:02:19.726Z,101686.70
2022-10-28T03:07:28.092Z,101676.99
2022-10-28T03:12:35.423Z,101672.96
2022-10-28T03:17:43.004Z,101679.17
2022-10-28T03:22:50.148Z,101677.87
2022-10-28T03:27:57.717Z,101672.10
2022-10-28T03:33:05.004Z,101664.81
2022-10-28T03:38:12.300Z,101659.59
2022-10-28T03:43:19.707Z,101661.14
2022-10-28T03:48:27.148Z,101660.91
2022-10-28T03:53:34.756Z,101654.14
2022-10-28T03:58:42.267Z,101652.86
2022-10-28T04:03:49.612Z,101645.61
2022-10-28T04:08:57.281Z,101648.44
2022-10-28T04:14:04.750Z,101649.46
2022-10-28T04:19:12.203Z,101647.95
2022-10-28T04:24:19.519Z,101635.73
2022-10-28T04:29:26.681Z,101630.19
2022-10-28T04:34:33.618Z,101625.05
2022-10-28T04:39:41.200Z,101620.00
2022-10-28T04:44:48.101Z,101609.92
2022-10-28T04:49:55.109Z,101601.06
2022-10-28T04:55:02.410Z,101601.20
2022-10-28T05:00:11.403Z,101606.23
2022-10-28T05:05:19.080Z,101604.61
2022-10-28T05:10:26.399Z,101599.04
2022-10-28T05:15:33.480Z,101591.32
2022-10-28T05:20:40.525Z,101591.05
2022-10-28T05:25:47.515Z,101586.59
2022-10-28T05:30:54.630Z,101584.92
2022-10-28T05:36:03.429Z,101586.08
2022-10-28T05:41:10.526Z,101586.18
2022-10-28T05:46:17.636Z,101579.34
2022-10-28T05:51:24.537Z,101583.60
2022-10-28T05:56:31.677Z,101580.91
2022-10-28T06:01:38.804Z,101576.87
2022-10-28T06:06:46.095Z,101573.20
2022-10-28T06:11:51.712Z,101571.79
2022-10-28T06:16:58.898Z,101575.74
2022-10-28T06:22:05.985Z,101578.21
2022-10-28T06:27:13.692Z,101584.73
2022-10-28T06:32:20.695Z,101586.36
2022-10-28T06:37:27.830Z,101588.30
2022-10-28T06:42:34.814Z,101593.77
2022-10-28T06:47:43.252Z,101596.36
2022-10-28T06:52:50.282Z,101597.12
2022-10-28T06:58:00.045Z,101602.14
2022-10-28T07:03:07.131Z,101602.84
2022-10-28T07:08:14.672Z,101595.11
2022-10-28T07:13:30.701Z,101589.55
2022-10-28T07:18:40.707Z,101590.94
2022-10-28T07:23:49.149Z,101588.18
2022-10-28T07:28:56.212Z,101589.24
2022-10-28T07:34:03.316Z,101588.38
2022-10-28T07:39:11.196Z,101589.86
2022-10-28T07:44:18.769Z,101592.27
2022-10-28T07:49:25.786Z,101587.10
2022-10-28T07:54:33.121Z,101580.37
2022-10-28T07:59:40.562Z,101574.79
2022-10-28T08:04:48.410Z,101575.74
2022-10-28T08:09:56.246Z,101570.61
2022-10-28T08:15:03.347Z,101569.88
2022-10-28T08:20:11.193Z,101570.73
2022-10-28T08:25:18.113Z,101562.04
2022-10-28T08:30:25.000Z,101558.94
2022-10-28T08:35:31.974Z,101564.27
2022-10-28T08:40:48.621Z,101559.23
2022-10-28T08:46:02.639Z,101553.23
2022-10-28T08:51:17.519Z,101546.64
2022-10-28T08:56:31.646Z,101537.08
2022-10-28T09:01:48.720Z,101542.78
2022-10-28T09:06:55.986Z,101532.55
2022-10-28T09:12:22.647Z,101524.58
2022-10-28T09:17:37.984Z,101523.24
2022-10-28T09:22:53.577Z,101518.30
2022-10-28T09:28:29.899Z,101522.31
2022-10-28T09:34:03.999Z,101510.73
2022-10-28T09:39:23.963Z,101496.52
2022-10-28T09:44:43.357Z,101496.83
2022-10-28T09:49:53.029Z,101499.62
2022-10-28T09:55:06.373Z,101505.27
2022-10-28T10:00:17.893Z,101502.98
2022-10-28T10:05:25.569Z,101498.39
2022-10-28T10:10:38.140Z,101492.89
2022-10-28T10:15:52.284Z,101486.14
2022-10-28T10:21:00.774Z,101477.24
2022-10-28T10:26:12.309Z,101472.69
2022-10-28T10:31:24.886Z,101467.79
2022-10-28T10:36:32.321Z,101462.79
2022-10-28T10:41:39.089Z,101465.36
2022-10-28T10:46:45.958Z,101470.61
2022-10-28T10:51:57.420Z,101476.66
2022-10-28T10:57:16.877Z,101477.04
2022-10-28T11:02:28.312Z,101482.53
2022-10-28T11:07:37.850Z,101499.58
2022-10-28T11:12:55.043Z,101500.07
2022-10-28T11:18:20.798Z,101508.46
2022-10-28T11:23:41.635Z,101534.25
2022-10-28T11:29:01.739Z,101551.67
2022-10-28T11:34:24.504Z,101571.96
2022-10-28T11:39:38.649Z,101571.34
2022-10-28T11:44:54.406Z,101566.69
2022-10-28T11:50:24.120Z,101565.79
2022-10-28T11:55:40.327Z,101537.28
2022-10-28T12:01:05.777Z,101515.52
2022-10-28T12:06:30.694Z,101499.73
2022-10-28T12:11:51.157Z,101489.23
2022-10-28T12:17:06.769Z,101478.98
2022-10-28T12:22:19.957Z,101482.23
2022-10-28T12:27:31.100Z,101480.23
2022-10-28T12:32:41.698Z,101472.21
2022-10-28T12:37:56.596Z,101465.23
2022-10-28T12:43:13.002Z,101460.19
2022-10-28T12:48:29.347Z,101455.41
2022-10-28T12:53:41.237Z,101452.86
2022-10-28T12:59:16.877Z,101422.36
2022-10-28T13:04:24.033Z,101384.94
2022-10-28T13:09:46.314Z,101370.46
2022-10-28T13:15:26.021Z,101360.09
2022-10-28T13:20:48.628Z,101352.97
2022-10-28T13:26:06.549Z,101337.98
2022-10-28T13:31:12.428Z,101335.61
2022-10-28T13:36:28.581Z,101329.45
2022-10-28T13:41:42.264Z,101327.77
2022-10-28T13:47:26.793Z,101326.59
2022-10-28T13:52:34.155Z,101345.15
2022-10-28T13:57:44.522Z,101362.20
2022-10-28T14:02:56.290Z,101372.28
2022-10-28T14:08:05.556Z,101372.79
2022-10-28T14:13:21.174Z,101374.36
2022-10-28T14:18:42.871Z,101372.25
2022-10-28T14:24:13.961Z,101367.99
2022-10-28T14:29:30.942Z,101364.97
2022-10-28T14:34:47.370Z,101367.63
2022-10-28T14:40:15.324Z,101374.60
2022-10-28T14:45:35.605Z,101376.44
2022-10-28T14:50:45.370Z,101375.73
2022-10-28T14:55:58.823Z,101379.45
2022-10-28T15:01:24.557Z,101381.15
2022-10-28T15:06:41.144Z,101363.92
2022-10-28T15:11:51.543Z,101332.89
2022-10-28T15:17:00.205Z,101299.64
2022-10-28T15:22:13.254Z,101322.17
2022-10-28T15:27:21.227Z,101322.66
2022-10-28T15:32:36.488Z,101329.21
2022-10-28T15:37:43.590Z,101328.21
2022-10-28T15:42:58.594Z,101324.23
2022-10-28T15:48:14.686Z,101318.73
2022-10-28T15:53:37.962Z,101311.67
2022-10-28T15:58:46.503Z,101301.88
2022-10-28T16:03:53.417Z,101303.42
2022-10-28T16:09:19.118Z,101293.62
2022-10-28T16:14:39.694Z,101294.77
2022-10-28T16:19:52.013Z,101299.45
2022-10-28T16:24:59.308Z,101293.98
2022-10-28T16:30:07.602Z,101292.32
2022-10-28T16:35:19.128Z,101292.87
2022-10-28T16:45:56.050Z,101292.78
2022-10-28T16:51:05.794Z,101297.16
2022-10-28T16:56:16.035Z,101301.79
2022-10-28T17:01:24.184Z,101299.51
2022-10-28T17:06:31.241Z,101296.39
2022-10-28T17:11:41.228Z,101294.54
2022-10-28T17:16:48.698Z,101286.38
2022-10-28T17:21:56.497Z,101280.13
2022-10-28T17:27:04.604Z,101272.52
2022-10-28T17:32:12.558Z,101270.20
2022-10-28T17:37:20.162Z,101272.13
2022-10-28T17:42:28.631Z,101271.55
2022-10-28T17:47:38.870Z,101273.27
2022-10-28T17:52:46.122Z,101265.23
2022-10-28T17:57:53.366Z,101258.31
2022-10-28T18:03:06.631Z,101250.83
2022-10-28T18:08:13.775Z,101250.02
2022-10-28T18:13:20.887Z,101254.79
2022-10-28T18:18:29.279Z,101249.52
2022-10-28T18:23:36.437Z,101249.01
2022-10-28T18:28:45.225Z,101235.97
2022-10-28T18:33:54.490Z,101228.90
2022-10-28T18:39:01.849Z,101219.19
2022-10-28T18:44:11.559Z,101208.44
2022-10-28T18:49:19.023Z,101199.50
2022-10-28T18:54:25.943Z,101204.61
2022-10-28T18:59:32.947Z,101206.81
2022-10-28T19:04:39.945Z,101213.49
2022-10-28T19:09:46.887Z,101212.36
2022-10-28T19:14:53.984Z,101209.85
2022-10-28T19:20:00.896Z,101211.02
2022-10-28T19:25:09.133Z,101206.05
2022-10-28T19:30:17.122Z,101200.75
2022-10-28T19:35:24.230Z,101194.60
2022-10-28T19:40:31.132Z,101187.00
2022-10-28T19:45:38.252Z,101193.05
2022-10-28T19:50:51.329Z,101192.25
2022-10-28T19:56:04.049Z,101184.75
2022-10-28T20:01:12.663Z,101186.67
2022-10-28T20:06:21.645Z,101185.79
2022-10-28T20:11:31.915Z,101192.19
2022-10-28T20:16:39.706Z,101191.46
2022-10-28T20:21:45.373Z,101189.11
2022-10-28T20:26:52.406Z,101186.33
2022-10-28T20:31:59.518Z,101181.89
2022-10-28T20:37:06.577Z,101180.83
2022-10-28T20:42:13.582Z,101178.98
2022-10-28T20:47:20.938Z,101176.95
2022-10-28T20:52:27.797Z,101172.15
2022-10-28T20:57:34.752Z,101177.05
2022-10-28T21:02:42.783Z,101180.27
2022-10-28T21:07:49.902Z,101182.70
2022-10-28T21:12:57.796Z,101183.61
2022-10-28T21:18:03.654Z,101181.96
2022-10-28T21:23:11.723Z,101184.32
2022-10-28T21:28:18.610Z,101182.58
2022-10-28T21:33:25.470Z,101177.46
2022-10-28T21:38:32.646Z,101172.42
2022-10-28T21:43:41.073Z,101172.96
2022-10-28T21:48:48.638Z,101164.68
2022-10-28T21:53:55.537Z,101164.99
2022-10-28T21:59:03.401Z,101163.95
2022-10-28T22:04:11.856Z,101158.51
2022-10-28T22:09:20.196Z,101155.52
2022-10-28T22:14:30.454Z,101150.77
2022-10-28T22:19:37.398Z,101149.64
2022-10-28T22:24:44.311Z,101153.10
2022-10-28T22:29:51.301Z,101155.33
2022-10-28T22:34:58.208Z,101151.08
2022-10-28T22:40:05.299Z,101146.28
2022-10-28T22:45:12.785Z,101135.11
2022-10-28T22:50:18.714Z,101130.17
2022-10-28T22:55:25.917Z,101130.29
2022-10-28T23:00:32.891Z,101130.28
2022-10-28T23:05:40.582Z,101134.42
2022-10-28T23:10:47.585Z,101130.08
2022-10-28T23:15:54.930Z,101136.27
2022-10-28T23:21:06.579Z,101139.39
2022-10-28T23:26:15.974Z,101147.92
2022-10-28T23:31:24.334Z,101145.41
2022-10-28T23:36:31.360Z,101142.45
2022-10-28T23:41:38.243Z,101142.30
2022-10-28T23:46:45.161Z,101136.47
2022-10-28T23:51:52.085Z,101130.15
2022-10-28T23:57:00.126Z,101125.48
